KOCW/OCW METAR and TAF weather

Enter ICAO airport designator
Station Type Date Time Source
KOCW METAR 2020/06/03 22:15 UTC NOAA

KOCW 032215Z AUTO 23010G14KT 10SM CLR 32/19 A2983 RMK AO2 T03220187


Station Type Date Time Source
KOCW Decoded METAR 2020/06/03 22:15 UTC NOAA

Washington, Warren Field Airport, NC, United States (KOCW) 35-34-14N 077-02-59W
Jun 03, 2020 - 06:15 PM EDT / 2020.06.03 2215 UTC
Wind: from the SW (230 degrees) at 12 MPH (10 KT) gusting to 16 MPH (14 KT):0
Visibility: 10 mile(s):0
Sky conditions: clear
Temperature: 90.0 F (32.2 C)
Dew Point: 65.7 F (18.7 C)
Relative Humidity: 44%
Pressure (altimeter): 29.83 in. Hg (1010 hPa)
ob: KOCW 032215Z AUTO 23010G14KT 10SM CLR 32/19 A2983 RMK AO2 T03220187
cycle: 22

Station Type Date Time Source
KOCW TAF UTC NOAA

Error!

Example: see airport list